Claymont, Delaware
Current Conditions -  °F | °C
As of 9:51 PM on Wednesday 22 Oct 2014 (Local Time) from KILG Reporting Station
Light Rain Light Rain  
Wind Chill: 53°   Ceiling: 8000
Heat Index: 53°   Visibility: 10mi
Dew Point: 49°   Wind: 20mph
Humidity: 86%   Direction: 330°NNW
Pressure: 29.86"   Gusts: 26mph
Location:  39.8°N, 75.46°W
Report Text: KILG 230151Z 33017G23KT 10SM -RA SCT060 OVC080 12/09 A2986 RMK AO2 SLP110 P0000 T01170094
Loading
Personal Weather Stations






























Interactive Weather Map
Tropical Storm Tracking
New forecast layout! Learn more

10-Day Weather Forecast

Advertisements
Track Severe Weather on mobile